createdAt,value
2022-08-11T00:01:28.951Z,53.10
2022-08-11T00:04:02.837Z,53.60
2022-08-11T00:06:31.167Z,53.46
2022-08-11T00:08:59.598Z,53.59
2022-08-11T00:11:46.232Z,54.30
2022-08-11T00:14:23.003Z,54.38
2022-08-11T00:17:01.967Z,54.29
2022-08-11T00:20:11.809Z,54.55
2022-08-11T00:22:24.432Z,54.60
2022-08-11T00:24:55.968Z,54.58
2022-08-11T00:27:36.837Z,55.29
2022-08-11T00:30:09.140Z,55.08
2022-08-11T00:32:38.952Z,55.25
2022-08-11T00:35:54.047Z,55.38
2022-08-11T00:37:57.247Z,55.58
2022-08-11T00:40:45.811Z,55.82
2022-08-11T00:43:23.979Z,56.13
2022-08-11T00:46:12.294Z,56.46
2022-08-11T00:48:49.471Z,55.88
2022-08-11T00:52:03.887Z,56.29
2022-08-11T00:54:54.314Z,56.47
2022-08-11T00:57:37.483Z,56.65
2022-08-11T01:00:11.120Z,56.73
2022-08-11T01:03:03.065Z,57.51
2022-08-11T01:05:46.233Z,56.92
2022-08-11T01:08:41.153Z,57.44
2022-08-11T01:11:23.731Z,57.46
2022-08-11T01:14:33.688Z,58.08
2022-08-11T01:17:23.095Z,57.91
2022-08-11T01:20:46.927Z,57.89
2022-08-11T01:23:08.207Z,58.15
2022-08-11T01:26:18.195Z,58.88
2022-08-11T01:29:06.498Z,59.15
2022-08-11T01:32:11.566Z,60.08
2022-08-11T01:35:15.948Z,59.91
2022-08-11T01:37:49.416Z,59.68
2022-08-11T01:40:47.338Z,59.92
2022-08-11T01:44:14.153Z,59.92
2022-08-11T01:46:50.654Z,60.32
2022-08-11T01:50:08.163Z,60.42
2022-08-11T01:52:40.003Z,60.43
2022-08-11T01:55:24.183Z,61.07
2022-08-11T01:58:05.652Z,61.63
2022-08-11T02:00:46.614Z,61.53
2022-08-11T02:03:28.853Z,62.35
2022-08-11T02:06:30.591Z,62.30
2022-08-11T02:08:57.666Z,61.84
2022-08-11T02:11:35.113Z,62.37
2022-08-11T02:14:12.327Z,62.11
2022-08-11T02:16:55.800Z,62.98
2022-08-11T02:19:45.379Z,62.89
2022-08-11T02:22:34.839Z,62.92
2022-08-11T02:25:07.868Z,63.82
2022-08-11T02:27:53.237Z,64.00
2022-08-11T02:30:25.579Z,63.78
2022-08-11T02:33:27.664Z,64.30
2022-08-11T02:36:15.197Z,64.10
2022-08-11T02:39:00.537Z,64.35
2022-08-11T02:42:33.455Z,63.97
2022-08-11T02:45:40.694Z,63.95
2022-08-11T02:48:41.171Z,64.34
2022-08-11T02:51:21.924Z,63.91
2022-08-11T02:54:05.908Z,64.29
2022-08-11T02:56:52.378Z,64.58
2022-08-11T02:59:47.246Z,64.31
2022-08-11T03:02:27.955Z,64.24
2022-08-11T03:05:14.702Z,64.68
2022-08-11T03:08:11.055Z,64.38
2022-08-11T03:11:15.335Z,64.64
2022-08-11T03:14:08.389Z,63.90
2022-08-11T03:16:46.607Z,63.81
2022-08-11T03:19:32.990Z,63.35
2022-08-11T03:22:22.215Z,63.30
2022-08-11T03:25:18.523Z,62.99
2022-08-11T03:28:16.895Z,62.18
2022-08-11T03:30:52.993Z,62.18
2022-08-11T03:33:49.868Z,62.51
2022-08-11T03:37:15.731Z,62.91
2022-08-11T03:39:57.545Z,63.31
2022-08-11T03:42:42.623Z,63.40
2022-08-11T03:45:31.598Z,64.08
2022-08-11T03:48:22.198Z,64.04
2022-08-11T03:51:22.612Z,63.71
2022-08-11T03:54:01.469Z,64.17
2022-08-11T03:56:37.569Z,64.06
2022-08-11T03:59:22.967Z,63.97
2022-08-11T04:01:53.348Z,63.94
2022-08-11T04:04:57.652Z,63.95
2022-08-11T04:07:46.102Z,63.96
2022-08-11T04:10:22.188Z,63.68
2022-08-11T04:13:07.838Z,63.77
2022-08-11T04:16:11.886Z,63.97
2022-08-11T04:19:13.647Z,63.88
2022-08-11T04:21:52.665Z,63.37
2022-08-11T04:24:39.729Z,63.12
2022-08-11T04:27:36.761Z,62.82
2022-08-11T04:30:58.917Z,62.94
2022-08-11T04:33:49.331Z,62.71
2022-08-11T04:37:11.713Z,62.85
2022-08-11T04:40:00.201Z,62.75
2022-08-11T04:43:07.715Z,62.04
2022-08-11T04:45:51.638Z,61.17
2022-08-11T04:49:08.551Z,55.42
2022-08-11T04:52:37.434Z,48.91
2022-08-11T04:55:45.731Z,45.09
2022-08-11T04:59:00.748Z,42.97
2022-08-11T05:02:17.619Z,39.45
2022-08-11T05:05:34.036Z,37.45
2022-08-11T05:08:25.226Z,36.48
2022-08-11T05:11:09.698Z,35.53
2022-08-11T05:14:11.482Z,33.00
2022-08-11T05:17:12.532Z,31.82
2022-08-11T05:20:04.174Z,32.41
2022-08-11T05:22:50.011Z,31.78
2022-08-11T05:26:45.072Z,30.65
2022-08-11T05:29:00.612Z,29.26
2022-08-11T05:32:16.124Z,28.69
2022-08-11T05:34:51.364Z,27.88
2022-08-11T05:38:04.521Z,26.83
2022-08-11T05:40:53.103Z,27.20
2022-08-11T05:44:20.261Z,26.85
2022-08-11T05:46:47.603Z,26.25
2022-08-11T05:49:34.393Z,26.28
2022-08-11T05:52:31.669Z,25.54
2022-08-11T05:55:25.358Z,25.46
2022-08-11T05:58:02.847Z,24.63
2022-08-11T06:00:31.002Z,24.66
2022-08-11T06:03:01.436Z,24.84
2022-08-11T06:05:38.515Z,23.62
2022-08-11T06:08:13.026Z,23.72
2022-08-11T06:10:44.182Z,23.52
2022-08-11T06:13:16.422Z,23.53
2022-08-11T06:15:49.285Z,22.47
2022-08-11T06:18:17.458Z,22.38
2022-08-11T06:20:48.615Z,21.32
2022-08-11T06:23:19.628Z,21.70
2022-08-11T06:25:47.964Z,21.25
2022-08-11T06:28:20.772Z,20.42
2022-08-11T06:30:49.267Z,20.41
2022-08-11T06:33:21.604Z,20.53
2022-08-11T06:35:52.378Z,19.56
2022-08-11T06:38:36.963Z,20.31
2022-08-11T06:41:30.538Z,19.41
2022-08-11T06:44:06.123Z,19.67
2022-08-11T06:46:39.189Z,19.80
2022-08-11T06:49:32.568Z,19.20
2022-08-11T06:52:04.739Z,19.61
2022-08-11T06:54:41.522Z,19.21
2022-08-11T06:57:32.558Z,19.32
2022-08-11T07:00:28.212Z,19.67
2022-08-11T07:03:01.066Z,18.92
2022-08-11T07:05:48.395Z,19.06
2022-08-11T07:08:44.852Z,17.94
2022-08-11T07:11:48.467Z,17.93
2022-08-11T07:14:41.762Z,17.89
2022-08-11T07:17:15.757Z,17.60
2022-08-11T07:20:04.897Z,17.02
2022-08-11T07:22:52.171Z,17.04
2022-08-11T07:25:38.528Z,17.24
2022-08-11T07:28:30.257Z,16.51
2022-08-11T07:31:05.063Z,15.86
2022-08-11T07:34:07.300Z,15.72
2022-08-11T07:36:30.629Z,15.86
2022-08-11T07:38:58.066Z,15.37
2022-08-11T07:41:28.723Z,15.10
2022-08-11T07:44:09.156Z,15.94
2022-08-11T07:47:00.763Z,15.32
2022-08-11T07:49:50.081Z,15.23
2022-08-11T07:52:27.126Z,14.16
2022-08-11T07:54:56.754Z,14.45
2022-08-11T07:58:14.648Z,14.08
2022-08-11T08:01:10.183Z,13.83
2022-08-11T08:04:09.186Z,13.73
2022-08-11T08:06:56.565Z,13.87
2022-08-11T08:09:43.588Z,13.85
2022-08-11T08:12:31.264Z,13.59
2022-08-11T08:15:17.535Z,13.33
2022-08-11T08:18:08.949Z,13.58
2022-08-11T08:20:50.276Z,13.17
2022-08-11T08:23:33.581Z,13.53
2022-08-11T08:26:30.178Z,13.13
2022-08-11T08:29:20.003Z,13.10
2022-08-11T08:31:49.500Z,12.92
2022-08-11T08:34:17.313Z,13.37
2022-08-11T08:36:50.440Z,13.29
2022-08-11T08:39:22.526Z,12.97
2022-08-11T08:41:53.521Z,12.94
2022-08-11T08:44:40.804Z,12.96
2022-08-11T08:47:14.257Z,12.55
2022-08-11T08:49:49.596Z,12.55
2022-08-11T08:52:26.296Z,13.24
2022-08-11T08:55:04.752Z,14.25
2022-08-11T08:57:39.499Z,15.83
2022-08-11T09:00:12.639Z,15.30
2022-08-11T09:02:41.809Z,15.25
2022-08-11T09:05:10.491Z,14.77
2022-08-11T09:07:40.446Z,13.83
2022-08-11T09:10:11.946Z,13.30
2022-08-11T09:12:42.899Z,13.28
2022-08-11T09:15:12.621Z,12.98
2022-08-11T09:17:41.777Z,13.09
2022-08-11T09:20:15.025Z,12.78
2022-08-11T09:24:02.015Z,12.39
2022-08-11T09:26:14.026Z,12.35
2022-08-11T09:28:44.209Z,12.21
2022-08-11T09:31:13.573Z,12.26
2022-08-11T09:33:43.057Z,13.94
2022-08-11T09:36:30.858Z,15.74
2022-08-11T09:39:18.417Z,15.79
2022-08-11T09:42:00.489Z,14.61
2022-08-11T09:44:49.817Z,13.48
2022-08-11T09:47:26.579Z,13.24
2022-08-11T09:50:02.379Z,14.76
2022-08-11T09:52:37.985Z,15.22
2022-08-11T09:55:11.458Z,16.63
2022-08-11T09:58:05.392Z,16.21
2022-08-11T10:00:37.725Z,14.60
2022-08-11T10:03:09.951Z,13.48
2022-08-11T10:05:56.706Z,13.34
2022-08-11T10:08:28.816Z,13.23
2022-08-11T10:10:57.047Z,13.08
2022-08-11T10:14:30.902Z,13.99
2022-08-11T10:16:28.040Z,15.45
2022-08-11T10:18:55.983Z,16.45
2022-08-11T10:21:44.148Z,17.70
2022-08-11T10:24:31.246Z,18.33
2022-08-11T10:27:00.733Z,19.51
2022-08-11T10:29:52.265Z,20.51
2022-08-11T10:32:57.329Z,20.50
2022-08-11T10:35:26.630Z,17.66
2022-08-11T10:38:07.729Z,17.13
2022-08-11T10:40:41.337Z,15.66
2022-08-11T10:43:59.303Z,14.27
2022-08-11T10:46:29.797Z,13.89
2022-08-11T10:48:59.320Z,14.28
2022-08-11T10:51:50.698Z,14.83
2022-08-11T10:54:40.666Z,13.50
2022-08-11T10:57:27.814Z,13.05
2022-08-11T10:59:57.020Z,12.46
2022-08-11T11:02:27.450Z,13.11
2022-08-11T11:05:21.678Z,12.64
2022-08-11T11:08:32.513Z,12.60
2022-08-11T11:11:02.280Z,12.63
2022-08-11T11:13:53.322Z,12.50
2022-08-11T11:16:43.778Z,12.52
2022-08-11T11:19:12.269Z,12.64
2022-08-11T11:21:39.922Z,12.49
2022-08-11T11:24:16.949Z,12.49
2022-08-11T11:26:59.086Z,12.43
2022-08-11T11:29:40.971Z,12.40
2022-08-11T11:32:17.053Z,11.50
2022-08-11T11:35:06.044Z,11.98
2022-08-11T11:37:35.766Z,12.76
2022-08-11T11:40:13.465Z,12.35
2022-08-11T11:42:42.716Z,12.22
2022-08-11T11:45:22.623Z,12.29
2022-08-11T11:47:54.772Z,13.11
2022-08-11T11:50:36.883Z,13.60
2022-08-11T11:53:11.814Z,14.54
2022-08-11T11:55:38.925Z,15.56
2022-08-11T11:58:25.503Z,15.89
2022-08-11T12:01:13.052Z,16.34
2022-08-11T12:03:41.049Z,17.71
2022-08-11T12:06:14.400Z,18.78
2022-08-11T12:08:43.606Z,19.92
2022-08-11T12:11:31.255Z,20.18
2022-08-11T12:14:02.244Z,21.10
2022-08-11T12:16:34.851Z,21.58
2022-08-11T12:19:08.730Z,21.80
2022-08-11T12:21:37.489Z,22.32
2022-08-11T12:24:29.229Z,22.25
2022-08-11T12:27:17.753Z,22.81
2022-08-11T12:30:06.022Z,23.30
2022-08-11T12:32:36.470Z,23.88
2022-08-11T12:35:05.527Z,24.49
2022-08-11T12:37:51.921Z,24.25
2022-08-11T12:41:13.732Z,24.80
2022-08-11T12:43:56.491Z,25.05
2022-08-11T12:46:32.008Z,25.47
2022-08-11T12:49:23.054Z,25.84
2022-08-11T12:52:06.725Z,26.76
2022-08-11T12:54:52.217Z,27.09
2022-08-11T12:57:44.101Z,27.41
2022-08-11T13:00:30.266Z,26.79
2022-08-11T13:03:15.984Z,27.85
2022-08-11T13:05:45.063Z,26.82
2022-08-11T13:08:15.427Z,26.90
2022-08-11T13:11:03.113Z,28.26
2022-08-11T13:13:52.869Z,28.24
2022-08-11T13:16:21.624Z,27.98
2022-08-11T13:18:50.314Z,28.08
2022-08-11T13:21:19.983Z,27.86
2022-08-11T13:24:00.242Z,28.52
2022-08-11T13:26:47.709Z,28.72
2022-08-11T13:29:26.556Z,28.40
2022-08-11T13:31:56.707Z,27.77
2022-08-11T13:34:27.040Z,28.18
2022-08-11T13:37:01.226Z,28.20
2022-08-11T13:39:31.061Z,28.36
2022-08-11T13:42:00.409Z,28.24
2022-08-11T13:44:30.298Z,27.94
2022-08-11T13:47:04.386Z,28.47
2022-08-11T13:49:35.070Z,28.61
2022-08-11T13:52:03.072Z,28.60
2022-08-11T13:54:38.451Z,29.22
2022-08-11T13:57:13.655Z,28.78
2022-08-11T14:00:12.241Z,28.91
2022-08-11T14:02:51.018Z,29.04
2022-08-11T14:05:23.033Z,28.82
2022-08-11T14:07:53.134Z,28.89
2022-08-11T14:10:25.027Z,28.76
2022-08-11T14:13:21.414Z,29.20
2022-08-11T14:15:52.281Z,29.20
2022-08-11T14:18:20.922Z,29.26
2022-08-11T14:21:12.717Z,29.08
2022-08-11T14:23:42.076Z,29.56
2022-08-11T14:26:31.857Z,29.82
2022-08-11T14:29:02.894Z,29.60
2022-08-11T14:31:32.221Z,29.81
2022-08-11T14:34:04.879Z,29.97
2022-08-11T14:36:36.192Z,30.03
2022-08-11T14:39:08.605Z,30.15
2022-08-11T14:42:10.178Z,30.06
2022-08-11T14:45:07.894Z,30.08
2022-08-11T14:47:38.067Z,30.01
2022-08-11T14:50:11.800Z,30.14
2022-08-11T14:53:11.293Z,31.19
2022-08-11T14:56:03.402Z,30.79
2022-08-11T14:58:34.015Z,30.82
2022-08-11T15:01:03.609Z,30.89
2022-08-11T15:03:33.796Z,30.65
2022-08-11T15:06:05.242Z,31.41
2022-08-11T15:08:54.502Z,30.96
2022-08-11T15:11:43.786Z,31.45
2022-08-11T15:14:12.673Z,32.46
2022-08-11T15:17:02.630Z,32.61
2022-08-11T15:19:40.569Z,32.73
2022-08-11T15:22:28.993Z,32.05
2022-08-11T15:24:58.894Z,32.36
2022-08-11T15:27:48.391Z,32.61
2022-08-11T15:30:34.988Z,32.65
2022-08-11T15:33:26.562Z,32.81
2022-08-11T15:36:14.523Z,32.79
2022-08-11T15:38:55.150Z,32.53
2022-08-11T15:41:54.628Z,33.35
2022-08-11T15:45:02.801Z,33.21
2022-08-11T15:47:42.058Z,33.21
2022-08-11T15:50:15.429Z,33.29
2022-08-11T15:53:07.899Z,33.61
2022-08-11T15:55:37.826Z,33.57
2022-08-11T15:58:27.934Z,33.82
2022-08-11T16:01:15.661Z,34.73
2022-08-11T16:04:13.328Z,34.70
2022-08-11T16:07:11.848Z,34.85
2022-08-11T16:09:54.051Z,34.91
2022-08-11T16:12:28.643Z,35.26
2022-08-11T16:15:20.448Z,35.20
2022-08-11T16:17:54.176Z,35.80
2022-08-11T16:20:24.953Z,36.45
2022-08-11T16:23:01.902Z,36.17
2022-08-11T16:27:02.537Z,36.12
2022-08-11T16:28:22.074Z,36.53
2022-08-11T16:30:50.309Z,36.58
2022-08-11T16:33:48.360Z,36.73
2022-08-11T16:36:29.946Z,37.03
2022-08-11T16:38:59.280Z,38.02
2022-08-11T16:41:49.218Z,37.91
2022-08-11T16:44:38.302Z,38.44
2022-08-11T16:47:12.158Z,39.04
2022-08-11T16:49:47.157Z,39.11
2022-08-11T16:52:22.095Z,38.79
2022-08-11T16:54:49.408Z,39.01
2022-08-11T16:57:39.532Z,39.01
2022-08-11T17:00:12.616Z,39.61
2022-08-11T17:03:04.932Z,39.42
2022-08-11T17:05:53.764Z,39.24
2022-08-11T17:08:57.285Z,39.90
2022-08-11T17:11:49.824Z,40.14
2022-08-11T17:14:35.063Z,40.21
2022-08-11T17:17:17.059Z,40.28
2022-08-11T17:20:41.398Z,40.69
2022-08-11T17:23:18.794Z,40.77
2022-08-11T17:26:04.014Z,40.61
2022-08-11T17:28:33.282Z,40.58
2022-08-11T17:31:22.525Z,41.16
2022-08-11T17:34:10.694Z,41.43
2022-08-11T17:36:44.603Z,41.80
2022-08-11T17:39:14.257Z,41.77
2022-08-11T17:42:01.978Z,41.50
2022-08-11T17:44:50.684Z,41.95
2022-08-11T17:47:37.775Z,41.80
2022-08-11T17:50:09.273Z,41.96
2022-08-11T17:53:04.856Z,42.21
2022-08-11T17:55:53.514Z,42.35
2022-08-11T17:58:51.354Z,42.12
2022-08-11T18:01:19.930Z,42.43
2022-08-11T18:03:56.347Z,42.40
2022-08-11T18:06:34.265Z,43.22
2022-08-11T18:09:30.104Z,42.85
2022-08-11T18:12:16.910Z,42.35
2022-08-11T18:15:10.812Z,41.88
2022-08-11T18:17:58.979Z,42.22
2022-08-11T18:20:45.653Z,42.54
2022-08-11T18:23:40.078Z,42.89
2022-08-11T18:26:39.313Z,42.59
2022-08-11T18:29:27.245Z,43.02
2022-08-11T18:32:21.192Z,43.21
2022-08-11T18:35:10.865Z,43.68
2022-08-11T18:38:05.807Z,44.34
2022-08-11T18:40:54.249Z,44.28
2022-08-11T18:43:43.071Z,44.42
2022-08-11T18:46:31.642Z,44.42
2022-08-11T18:49:22.678Z,45.35
2022-08-11T18:52:11.315Z,45.28
2022-08-11T18:55:00.259Z,45.84
2022-08-11T18:57:49.629Z,45.78
2022-08-11T19:00:42.436Z,46.19
2022-08-11T19:03:31.440Z,46.57
2022-08-11T19:06:38.778Z,46.88
2022-08-11T19:09:31.048Z,46.60
2022-08-11T19:12:19.174Z,47.01
2022-08-11T19:15:07.764Z,47.13
2022-08-11T19:17:57.351Z,47.18
2022-08-11T19:20:46.387Z,47.55
2022-08-11T19:23:37.194Z,48.11
2022-08-11T19:26:24.916Z,48.39
2022-08-11T19:30:07.517Z,48.41
2022-08-11T19:32:18.211Z,49.03
2022-08-11T19:35:04.844Z,49.09
2022-08-11T19:37:51.753Z,49.67
2022-08-11T19:40:38.715Z,49.49
2022-08-11T19:43:26.506Z,49.94
2022-08-11T19:46:15.119Z,49.99
2022-08-11T19:49:03.280Z,50.11
2022-08-11T19:51:53.866Z,50.22
2022-08-11T19:54:47.537Z,50.54
2022-08-11T19:57:39.717Z,50.68
2022-08-11T20:00:30.567Z,50.74
2022-08-11T20:03:18.920Z,51.03
2022-08-11T20:06:06.164Z,51.26
2022-08-11T20:08:58.355Z,51.18
2022-08-11T20:11:48.619Z,51.46
2022-08-11T20:14:36.684Z,52.02
2022-08-11T20:17:24.434Z,52.08
2022-08-11T20:20:10.694Z,52.26
2022-08-11T20:22:57.286Z,52.74
2022-08-11T20:25:43.462Z,53.81
2022-08-11T20:28:31.968Z,52.71
2022-08-11T20:31:17.606Z,53.00
2022-08-11T20:34:04.479Z,53.14
2022-08-11T20:36:54.920Z,53.32
2022-08-11T20:39:42.969Z,53.51
2022-08-11T20:42:39.971Z,53.41
2022-08-11T20:45:27.017Z,53.85
2022-08-11T20:48:17.394Z,54.72
2022-08-11T20:51:06.492Z,54.26
2022-08-11T20:53:59.267Z,54.60
2022-08-11T20:56:53.698Z,54.41
2022-08-11T20:59:56.683Z,54.96
2022-08-11T21:02:45.178Z,54.86
2022-08-11T21:08:47.369Z,55.22
2022-08-11T21:11:34.422Z,55.41
2022-08-11T21:14:21.857Z,55.93
2022-08-11T21:17:26.803Z,55.95
2022-08-11T21:20:21.729Z,56.35
2022-08-11T21:23:23.835Z,56.71
2022-08-11T21:26:26.554Z,56.54
2022-08-11T21:29:14.572Z,56.72
2022-08-11T21:32:01.702Z,57.08
2022-08-11T21:34:49.783Z,57.40
2022-08-11T21:37:38.023Z,57.74
2022-08-11T21:40:25.681Z,58.07
2022-08-11T21:43:12.247Z,58.11
2022-08-11T21:45:59.859Z,58.13
2022-08-11T21:48:48.317Z,58.35
2022-08-11T21:51:33.829Z,58.47
2022-08-11T21:54:20.344Z,58.48
2022-08-11T21:57:06.976Z,58.62
2022-08-11T22:00:11.514Z,59.14
2022-08-11T22:02:58.057Z,58.64
2022-08-11T22:05:45.713Z,58.99
2022-08-11T22:08:31.908Z,59.29
2022-08-11T22:11:32.492Z,59.29
2022-08-11T22:14:23.352Z,59.91
2022-08-11T22:17:09.962Z,59.71
2022-08-11T22:19:56.289Z,59.80
2022-08-11T22:22:52.160Z,59.56
2022-08-11T22:25:51.309Z,59.95
2022-08-11T22:28:40.405Z,59.88
2022-08-11T22:31:27.332Z,59.81
2022-08-11T22:34:13.323Z,59.92
2022-08-11T22:37:01.681Z,60.24
2022-08-11T22:40:01.994Z,60.09
2022-08-11T22:42:51.693Z,60.14
2022-08-11T22:45:38.877Z,60.33
2022-08-11T22:48:26.499Z,60.14
2022-08-11T22:51:13.639Z,60.50
2022-08-11T22:54:00.541Z,60.34
2022-08-11T22:56:48.166Z,60.36
2022-08-11T22:59:35.842Z,60.65
2022-08-11T23:02:23.844Z,60.96
2022-08-11T23:05:10.893Z,60.93
2022-08-11T23:07:57.480Z,60.94
2022-08-11T23:10:44.190Z,60.74
2022-08-11T23:13:29.960Z,60.90
2022-08-11T23:16:16.699Z,61.04
2022-08-11T23:19:02.385Z,62.31
2022-08-11T23:21:49.703Z,61.28
2022-08-11T23:24:36.867Z,61.33
2022-08-11T23:27:24.446Z,61.87
2022-08-11T23:30:13.537Z,62.10
2022-08-11T23:33:03.397Z,62.56
2022-08-11T23:35:56.525Z,62.76
2022-08-11T23:38:42.587Z,62.91
2022-08-11T23:41:29.171Z,63.50
2022-08-11T23:44:15.259Z,63.60
2022-08-11T23:47:02.427Z,63.68
2022-08-11T23:49:48.890Z,64.04
2022-08-11T23:52:35.605Z,64.33
2022-08-11T23:55:21.669Z,65.22
2022-08-11T23:58:07.084Z,64.63
